Raceland, LA (70394)

1:29 AM CDT on September 20, 2014 (GMT -0500)
Sugarland Subdivision | Change Station
CLOSE
Current Station
Personal Weather Station
Location: Raceland, LA
Elevation: 10 ft
Nearby Weather Stations

Elev 10 ft 29.70 °N, 90.57 °W | Updated 3 seconds ago

Clear
Clear
73.6 °F
Feels Like 72 °F
N
1.0
Wind Variable Wind from ENE
Gusts 5.0 mph

Today
High -- | Low -- °F
--% Chance of Precip.
Yesterday
High -- | Low -- °F
Precip. -- in
6:49 AM 7:01 PM
Waning Crescent, 14% visible
Pressure 29.91 in
Visibility 7.0 miles
Clouds Clear
Heat Index 72 °F
Dew Point 70 °F
Humidity 89%
Rainfall 0.00 in
Snow Depth Not available.
UV 0 out of 12
Pollen 8.60 out of 12
Air Quality Not available.
Flu Activity Not available.
METAR KHUM 200615Z AUTO 05003KT 7SM CLR 23/19 A2991 RMK AO2 T02300191

More Conditions Fewer Conditions

Pressure 29.91 in
Visibility 7.0 miles
Clouds Clear
Heat Index 72 °F
Dew Point 70 °F
Humidity 89%
Rainfall 0.00 in
Snow Depth Not available.
UV 0 out of 12
Pollen 8.60 out of 12
Air Quality Not available.
Flu Activity Not available.
METAR KHUM 200615Z AUTO 05003KT 7SM CLR 23/19 A2991 RMK AO2 T02300191

More Conditions Fewer Conditions

10-Day Weather Forecast

Almanac

Astronomy

Sep. 20, 2014 Rise Set
Actual Time 6:49 AM CDT 7:01 PM CDT
Civil Twilight 6:25 AM CDT 7:25 PM CDT
Nautical Twilight 5:58 AM CDT 7:52 PM CDT
Astronomical Twilight 5:29 AM CDT 8:21 PM CDT
Moon 3:41 AM CDT 4:54 PM CDT
Length of Visible Light 12h 59m
Length of Day
12h 11m
Tomorrow will be 1m 46s shorter.
Waning Crescent, 14% of the Moon is Illuminated
Today
Waning Crescent
Sep 24
New
Oct 1
First Quarter
Oct 8
Full
Oct 15
Last Quarter

Today's Extremes

State Highs State Lows

Community

WunderPhotos

Upload Photos

1,754,779 photos uploaded!

WunderBlogs® & News

Nearby

Snow Depth

Station Depth Elevation
No new snow has been reported.

Earthquake Activity

City Distance Mag. Time & Date
No recent earthquake activity has been reported nearby.
Minimum magnitude displayed is 2.5.

Coastal Water Temperatures

Place Temperature
Amerada Pass, LA 82.0 °F

Nearby Weather Stations